Time;durP1;ratioP1;P1;durP2;ratioP2;P2;SDS_P1;SDS_P2;PMS_P1;PMS_P2;Temp;Humidity;BMP_temperature;BMP_pressure;BME280_temperature;BME280_humidity;BME280_pressure;Samples;Min_cycle;Max_cycle;Signal;HPM_P1;HPM_P2
2023/10/13 00:01:06;;;;;;;1.87;1.77;;;14.10;99.90;;;;;;6224597;23;20625;-81
2023/10/13 00:03:34;;;;;;;2.13;2.03;;;14.10;99.90;;;;;;6251827;23;20385;-81
2023/10/13 00:06:03;;;;;;;2.10;1.87;;;14.10;99.90;;;;;;6252144;23;20883;-80
2023/10/13 00:08:30;;;;;;;3.67;2.13;;;14.10;99.90;;;;;;6252782;23;20808;-80
2023/10/13 00:11:00;;;;;;;1.60;1.50;;;14.00;99.90;;;;;;6257270;23;20408;-80
2023/10/13 00:13:28;;;;;;;1.00;1.00;;;14.00;99.90;;;;;;6235374;23;20407;-81
2023/10/13 00:18:27;;;;;;;2.10;1.73;;;14.00;99.90;;;;;;6259830;23;20473;-80
2023/10/13 00:20:56;;;;;;;2.03;1.90;;;14.10;99.90;;;;;;6252375;23;20405;-79
2023/10/13 00:23:26;;;;;;;1.90;1.80;;;14.10;99.90;;;;;;6249857;23;20702;-81
2023/10/13 00:25:56;;;;;;;0.97;0.97;;;14.00;99.90;;;;;;6252234;23;21036;-79
2023/10/13 00:28:35;;;;;;;1.70;1.60;;;14.00;99.90;;;;;;6250502;23;20381;-83
2023/10/13 00:31:10;;;;;;;0.50;0.50;;;14.00;99.90;;;;;;6251238;23;20769;-81
2023/10/13 00:33:38;;;;;;;0.80;0.80;;;14.00;99.90;;;;;;6254861;23;20757;-80
2023/10/13 00:36:07;;;;;;;1.03;1.03;;;14.00;99.90;;;;;;6252680;23;20418;-79
2023/10/13 00:38:35;;;;;;;1.07;1.07;;;14.00;99.90;;;;;;6250257;23;20371;-80
2023/10/13 00:41:50;;;;;;;2.30;2.20;;;13.90;99.90;;;;;;6250476;23;20394;-80
2023/10/13 00:44:07;;;;;;;0.90;0.90;;;13.90;99.90;;;;;;6249980;23;20628;-79
2023/10/13 00:46:37;;;;;;;2.90;2.70;;;13.80;99.90;;;;;;6249052;23;20380;-79
2023/10/13 00:49:06;;;;;;;1.90;1.17;;;13.90;99.90;;;;;;6250146;23;20572;-80
2023/10/13 00:51:36;;;;;;;10.53;1.30;;;13.80;99.90;;;;;;6250585;23;20588;-80
2023/10/13 00:54:11;;;;;;;0.60;0.60;;;13.80;99.90;;;;;;6251047;23;20413;-81
2023/10/13 00:59:26;;;;;;;1.70;1.60;;;13.80;99.90;;;;;;6249613;23;20355;-81
2023/10/13 01:01:55;;;;;;;1.10;1.10;;;13.80;99.90;;;;;;6225433;23;20476;-80
2023/10/13 01:04:27;;;;;;;1.40;1.23;;;13.80;99.90;;;;;;6225867;23;20385;-82
2023/10/13 01:06:54;;;;;;;0.50;0.50;;;13.80;99.90;;;;;;6225765;23;20749;-81
2023/10/13 01:09:24;;;;;;;1.83;1.73;;;13.80;99.90;;;;;;6252457;23;20393;-80
2023/10/13 01:11:55;;;;;;;2.20;1.83;;;13.70;99.90;;;;;;6228385;23;20401;-81
2023/10/13 01:14:27;;;;;;;1.00;1.00;;;13.70;99.90;;;;;;6271182;23;20411;-82
2023/10/13 01:16:55;;;;;;;1.13;1.13;;;13.70;99.90;;;;;;6273085;22;20364;-82
2023/10/13 01:19:27;;;;;;;1.40;1.30;;;13.60;99.90;;;;;;6271048;22;20421;-83
2023/10/13 01:22:06;;;;;;;1.80;1.70;;;13.60;99.90;;;;;;6256542;23;20388;-82
2023/10/13 01:24:36;;;;;;;0.83;0.83;;;13.60;99.90;;;;;;6254613;23;20393;-83
2023/10/13 01:27:25;;;;;;;1.23;1.23;;;13.60;99.90;;;;;;6252586;23;20418;-81
2023/10/13 01:30:05;;;;;;;0.60;0.60;;;13.50;99.90;;;;;;6250198;23;20995;-81
2023/10/13 01:32:40;;;;;;;11.93;3.07;;;13.60;99.90;;;;;;6251599;23;20367;-80
2023/10/13 01:35:07;;;;;;;1.57;1.57;;;13.60;99.90;;;;;;6224769;23;20411;-81
2023/10/13 01:37:36;;;;;;;4.47;2.93;;;13.60;99.90;;;;;;6252098;23;20421;-80
2023/10/13 01:40:07;;;;;;;0.87;0.87;;;13.60;99.90;;;;;;6251652;23;20410;-81
2023/10/13 01:42:36;;;;;;;2.20;2.10;;;13.60;99.90;;;;;;6251990;23;20463;-82
2023/10/13 01:45:07;;;;;;;1.83;1.73;;;13.70;99.90;;;;;;6226610;23;20407;-82
2023/10/13 01:47:34;;;;;;;0.60;0.60;;;13.60;99.90;;;;;;6252504;23;20377;-80
2023/10/13 01:50:36;;;;;;;1.23;1.23;;;13.60;99.90;;;;;;6252999;23;20363;-82
2023/10/13 01:53:11;;;;;;;4.93;2.27;;;13.70;99.90;;;;;;6250603;23;20441;-81
2023/10/13 01:55:43;;;;;;;0.97;0.93;;;13.60;99.90;;;;;;6251686;23;20763;-82
2023/10/13 01:58:15;;;;;;;1.47;1.30;;;13.50;99.90;;;;;;6252388;23;20381;-81
2023/10/13 02:00:44;;;;;;;1.90;1.77;;;13.60;99.90;;;;;;6251024;23;20405;-81
2023/10/13 02:03:16;;;;;;;1.00;1.00;;;13.50;99.90;;;;;;6251471;23;20371;-82
2023/10/13 02:05:47;;;;;;;4.20;0.90;;;13.60;99.90;;;;;;6252827;23;20352;-80
2023/10/13 02:08:23;;;;;;;1.40;1.37;;;13.50;99.90;;;;;;6252977;23;20393;-80
2023/10/13 02:10:52;;;;;;;1.03;1.03;;;13.40;99.90;;;;;;6252355;23;20370;-82
2023/10/13 02:13:22;;;;;;;0.80;0.80;;;13.50;99.90;;;;;;6251922;23;20664;-81
2023/10/13 02:15:56;;;;;;;1.13;1.13;;;13.60;99.90;;;;;;6226519;23;20579;-81
2023/10/13 02:18:27;;;;;;;0.80;0.80;;;13.60;99.90;;;;;;6252641;23;20349;-78
2023/10/13 02:21:12;;;;;;;0.90;0.90;;;13.60;99.90;;;;;;6224619;23;20506;-80
2023/10/13 02:23:59;;;;;;;0.77;0.77;;;13.60;99.90;;;;;;6250058;23;20431;-79
2023/10/13 02:26:32;;;;;;;2.10;1.63;;;13.60;99.90;;;;;;6248669;23;20383;-79
2023/10/13 02:29:07;;;;;;;0.50;0.50;;;13.60;99.90;;;;;;6249468;23;20401;-80
2023/10/13 02:31:39;;;;;;;0.63;0.63;;;13.60;99.90;;;;;;6249385;23;20369;-83
2023/10/13 02:34:08;;;;;;;4.30;2.20;;;13.60;99.90;;;;;;6249460;23;20411;-80
2023/10/13 02:36:36;;;;;;;1.53;1.43;;;13.80;99.90;;;;;;6250107;23;20459;-80
2023/10/13 02:39:07;;;;;;;1.17;1.17;;;13.40;99.90;;;;;;6250481;23;20656;-82
2023/10/13 02:41:38;;;;;;;0.40;0.40;;;13.60;99.90;;;;;;6224258;23;20370;-80
2023/10/13 02:44:11;;;;;;;1.07;1.07;;;13.50;99.90;;;;;;6224431;23;20675;-80
2023/10/13 02:46:43;;;;;;;4.17;3.77;;;13.50;99.90;;;;;;6253417;23;20400;-80
2023/10/13 02:49:10;;;;;;;2.63;2.43;;;13.40;99.90;;;;;;6255606;23;20385;-81
2023/10/13 02:51:43;;;;;;;1.60;1.50;;;13.40;99.90;;;;;;6256284;23;20438;-80
2023/10/13 02:54:11;;;;;;;1.27;1.17;;;13.40;99.90;;;;;;6254086;23;20409;-82
2023/10/13 02:56:57;;;;;;;2.40;2.30;;;13.40;99.90;;;;;;6228590;23;20376;-81
2023/10/13 02:59:39;;;;;;;4.27;4.07;;;13.30;99.90;;;;;;6253045;23;20377;-79
2023/10/13 03:04:50;;;;;;;0.90;0.90;;;13.30;99.90;;;;;;6250702;23;20547;-82
2023/10/13 03:07:23;;;;;;;1.43;1.33;;;13.30;99.90;;;;;;6251090;23;20443;-81
2023/10/13 03:09:51;;;;;;;1.07;1.07;;;13.20;99.90;;;;;;6252123;23;20380;-81
2023/10/13 03:12:20;;;;;;;0.90;0.87;;;13.10;99.90;;;;;;6251641;23;20440;-84
2023/10/13 03:14:47;;;;;;;1.33;1.33;;;13.20;99.90;;;;;;6251164;23;20407;-81
2023/10/13 03:17:17;;;;;;;0.60;0.60;;;13.20;99.90;;;;;;6225211;23;20379;-82
2023/10/13 03:19:54;;;;;;;1.10;1.10;;;13.10;99.90;;;;;;6251384;23;20425;-85
2023/10/13 03:22:31;;;;;;;1.80;1.70;;;13.20;99.90;;;;;;6252400;23;20534;-84
2023/10/13 03:25:06;;;;;;;1.43;1.33;;;13.20;99.90;;;;;;6220365;23;20852;-84
2023/10/13 03:30:20;;;;;;;3.03;2.83;;;13.20;99.90;;;;;;6253810;23;20399;-85
2023/10/13 03:32:53;;;;;;;1.53;1.43;;;13.20;99.90;;;;;;6228661;23;20368;-84
2023/10/13 03:35:25;;;;;;;0.80;0.80;;;13.30;99.90;;;;;;6254058;23;20549;-85
2023/10/13 03:37:55;;;;;;;1.13;1.07;;;13.30;99.90;;;;;;6228086;23;20467;-85
2023/10/13 03:45:27;;;;;;;0.90;0.90;;;13.30;99.90;;;;;;6251630;23;20404;-80
2023/10/13 03:47:54;;;;;;;1.67;1.57;;;13.20;99.90;;;;;;6253306;23;20219;-81
2023/10/13 03:50:32;;;;;;;4.20;2.08;;;13.10;99.90;;;;;;6251916;23;20399;-81
2023/10/13 03:53:00;;;;;;;0.80;0.80;;;13.10;99.90;;;;;;6252365;23;20487;-80
2023/10/13 03:55:34;;;;;;;2.27;2.03;;;13.10;99.90;;;;;;6254491;23;20457;-86
2023/10/13 03:58:04;;;;;;;13.57;3.20;;;13.10;99.90;;;;;;6255413;23;20372;-84
2023/10/13 04:00:32;;;;;;;2.37;2.17;;;13.10;99.90;;;;;;6227013;23;20492;-83
2023/10/13 04:32:19;;;;;;;1.13;1.13;;;13.60;99.90;;;;;;6252444;23;20352;-82
2023/10/13 04:34:47;;;;;;;0.90;0.90;;;13.60;99.90;;;;;;6253080;23;20644;-81
2023/10/13 04:40:14;;;;;;;2.40;2.20;;;13.60;99.90;;;;;;6201185;23;20401;-86
2023/10/13 04:42:53;;;;;;;4.10;3.80;;;13.70;99.90;;;;;;6229577;23;20379;-84
2023/10/13 04:51:49;;;;;;;4.07;3.87;;;13.60;99.90;;;;;;6241144;22;20386;-85
2023/10/13 04:54:25;;;;;;;2.03;1.93;;;13.70;99.90;;;;;;6258313;22;20430;-80
2023/10/13 04:57:46;;;;;;;3.30;3.03;;;13.70;99.90;;;;;;6226366;23;20409;-82
2023/10/13 05:45:07;;;;;;;4.90;2.33;;;14.20;99.90;;;;;;6251584;23;20369;-83
2023/10/13 06:28:58;;;;;;;1.07;1.07;;;14.70;99.90;;;;;;6250577;23;20422;-81
2023/10/13 06:31:27;;;;;;;1.33;1.33;;;14.60;99.90;;;;;;6250263;23;21092;-81
2023/10/13 06:33:57;;;;;;;3.07;2.93;;;14.60;99.90;;;;;;6249527;23;20430;-80
2023/10/13 06:36:25;;;;;;;1.03;1.00;;;14.50;99.90;;;;;;6223113;23;20448;-86
2023/10/13 06:38:56;;;;;;;3.03;2.83;;;14.60;99.90;;;;;;6249879;23;20699;-80
2023/10/13 06:41:32;;;;;;;0.60;0.60;;;14.80;99.90;;;;;;6222621;23;20436;-82
2023/10/13 06:43:59;;;;;;;2.20;2.10;;;14.90;99.90;;;;;;6246841;23;20425;-80
2023/10/13 06:46:28;;;;;;;1.07;1.07;;;15.00;99.90;;;;;;6248565;23;20371;-80
2023/10/13 06:48:59;;;;;;;2.00;1.90;;;15.10;99.90;;;;;;6221953;23;20404;-81
2023/10/13 06:51:31;;;;;;;2.10;1.90;;;15.30;99.90;;;;;;6249957;23;20379;-81
2023/10/13 06:53:58;;;;;;;3.37;3.17;;;15.40;99.90;;;;;;6248949;23;20451;-81
2023/10/13 06:56:39;;;;;;;0.70;0.70;;;15.40;99.90;;;;;;6225363;23;20362;-82
2023/10/13 06:59:06;;;;;;;1.20;1.20;;;15.40;99.90;;;;;;6249100;23;20376;-81
2023/10/13 07:01:40;;;;;;;2.67;2.47;;;15.50;99.90;;;;;;6252038;23;20754;-81
2023/10/13 07:04:13;;;;;;;2.10;2.00;;;15.60;99.90;;;;;;6251375;23;20386;-81
2023/10/13 07:06:50;;;;;;;1.00;1.00;;;15.70;99.90;;;;;;6251990;23;20943;-81
2023/10/13 07:12:22;;;;;;;1.70;1.60;;;16.30;99.90;;;;;;6252885;23;20359;-81
2023/10/13 07:14:53;;;;;;;7.17;4.47;;;16.60;99.90;;;;;;6251528;23;20463;-82
2023/10/13 07:17:25;;;;;;;2.27;2.17;;;16.80;99.90;;;;;;6252237;23;20372;-81
2023/10/13 07:19:54;;;;;;;2.43;2.33;;;17.90;99.90;;;;;;6251704;23;20650;-80
2023/10/13 07:22:22;;;;;;;3.17;2.97;;;20.20;99.90;;;;;;6249907;23;20397;-81
2023/10/13 07:24:50;;;;;;;2.83;2.67;;;22.20;99.90;;;;;;6249858;23;20466;-81
2023/10/13 07:27:25;;;;;;;2.20;2.10;;;23.20;99.90;;;;;;6250464;23;20424;-79
2023/10/13 07:30:13;;;;;;;3.23;3.03;;;23.50;99.90;;;;;;6250574;23;20566;-81
2023/10/13 07:32:46;;;;;;;6.10;2.00;;;24.20;99.90;;;;;;6250697;23;20408;-80
2023/10/13 07:35:24;;;;;;;3.50;3.30;;;24.80;99.90;;;;;;6224363;23;20436;-80
2023/10/13 07:37:52;;;;;;;2.80;2.60;;;24.80;99.90;;;;;;6251687;23;20385;-81
2023/10/13 07:43:03;;;;;;;3.00;2.87;;;24.40;99.90;;;;;;6250679;23;20408;-81
2023/10/13 07:45:36;;;;;;;1.63;1.47;;;24.80;99.90;;;;;;6262959;23;20389;-79
2023/10/13 07:48:11;;;;;;;3.77;3.57;;;25.40;99.90;;;;;;6262912;23;20389;-80
2023/10/13 07:50:39;;;;;;;2.53;2.33;;;25.30;99.90;;;;;;6252190;23;20445;-88
2023/10/13 07:53:20;;;;;;;2.07;1.97;;;25.00;99.90;;;;;;6251286;23;20436;-80
2023/10/13 07:55:54;;;;;;;2.70;2.50;;;25.00;99.90;;;;;;6251894;23;20679;-80
2023/10/13 07:58:24;;;;;;;3.40;3.10;;;25.10;99.90;;;;;;6230191;23;20719;-80
2023/10/13 08:01:06;;;;;;;3.47;3.17;;;25.00;99.90;;;;;;6258248;23;20396;-80
2023/10/13 08:03:43;;;;;;;2.03;1.93;;;24.90;99.90;;;;;;6259198;22;20379;-83
2023/10/13 08:08:53;;;;;;;1.63;1.53;;;24.20;99.90;;;;;;6249299;23;20487;-80
2023/10/13 08:14:11;;;;;;;2.73;2.53;;;24.80;99.90;;;;;;6257309;23;20452;-79
2023/10/13 08:17:00;;;;;;;2.80;1.57;;;24.90;99.90;;;;;;6273359;23;20404;-80
2023/10/13 08:19:39;;;;;;;1.30;1.30;;;24.10;99.90;;;;;;6272734;23;20394;-79
2023/10/13 08:32:58;;;;;;;2.57;2.47;;;22.50;99.90;;;;;;6228052;23;20389;-83
2023/10/13 08:35:33;;;;;;;2.00;1.90;;;22.70;99.90;;;;;;6250479;23;20413;-80
2023/10/13 08:38:04;;;;;;;1.43;1.43;;;22.50;99.90;;;;;;6250525;23;20633;-79
2023/10/13 08:41:53;;;;;;;2.27;2.17;;;22.20;99.90;;;;;;6250615;23;20393;-80
2023/10/13 08:43:44;;;;;;;2.10;2.00;;;22.30;99.90;;;;;;6238750;23;20418;-80
2023/10/13 08:46:25;;;;;;;4.03;3.83;;;22.40;99.90;;;;;;6249775;23;20382;-80
2023/10/13 08:49:18;;;;;;;3.70;3.50;;;22.40;99.90;;;;;;6250447;23;20755;-80
2023/10/13 08:51:50;;;;;;;2.30;2.20;;;22.20;99.90;;;;;;6250472;23;20381;-80
2023/10/13 08:54:33;;;;;;;1.33;1.30;;;21.70;99.90;;;;;;6249435;23;20473;-80
2023/10/13 08:57:29;;;;;;;2.40;2.30;;;21.70;99.90;;;;;;6249953;23;20377;-79
2023/10/13 09:00:26;;;;;;;3.43;3.23;;;22.40;99.90;;;;;;6250451;23;20443;-80
2023/10/13 09:05:43;;;;;;;1.93;1.83;;;22.00;99.90;;;;;;6250440;23;20555;-81
2023/10/13 09:08:16;;;;;;;4.60;2.33;;;21.70;99.90;;;;;;6249422;23;20439;-81
2023/10/13 09:11:05;;;;;;;1.73;1.63;;;21.60;99.90;;;;;;6224621;23;20359;-82
2023/10/13 09:13:46;;;;;;;1.13;1.10;;;21.30;99.90;;;;;;6229274;23;20534;-80
2023/10/13 09:17:08;;;;;;;2.90;2.70;;;21.20;99.90;;;;;;6251019;23;20417;-79
2023/10/13 09:19:05;;;;;;;4.20;3.00;;;21.10;99.90;;;;;;6246732;23;20666;-82
2023/10/13 09:24:21;;;;;;;3.17;2.90;;;20.90;99.90;;;;;;6259171;23;20378;-83
2023/10/13 09:26:55;;;;;;;1.40;1.33;;;21.10;99.90;;;;;;6253820;23;20389;-79
2023/10/13 09:29:24;;;;;;;1.50;1.43;;;21.40;99.90;;;;;;6250351;23;20706;-82
2023/10/13 09:32:00;;;;;;;1.60;1.57;;;21.30;99.90;;;;;;6251176;23;20460;-80
2023/10/13 09:34:31;;;;;;;2.13;2.03;;;21.20;99.90;;;;;;6225541;23;20389;-80
2023/10/13 09:37:04;;;;;;;1.67;1.57;;;21.10;99.90;;;;;;6251697;23;20429;-81
2023/10/13 09:39:44;;;;;;;1.03;1.03;;;21.10;99.90;;;;;;6253449;23;20694;-83
2023/10/13 09:42:13;;;;;;;1.90;1.80;;;20.80;99.90;;;;;;6254905;23;20504;-80
2023/10/13 09:44:49;;;;;;;1.20;1.20;;;21.20;99.90;;;;;;6254855;23;20365;-83
2023/10/13 09:47:29;;;;;;;1.10;1.10;;;21.10;99.90;;;;;;6254059;23;20440;-80
2023/10/13 09:50:05;;;;;;;1.20;1.20;;;21.10;99.90;;;;;;6253685;23;20373;-82
2023/10/13 09:52:33;;;;;;;1.47;1.47;;;21.10;99.90;;;;;;6254069;23;20385;-82
2023/10/13 09:55:11;;;;;;;1.20;1.20;;;21.40;99.90;;;;;;6254938;23;20371;-80
2023/10/13 09:57:44;;;;;;;0.93;0.93;;;21.50;99.90;;;;;;6227151;23;20397;-80
2023/10/13 10:03:05;;;;;;;1.87;1.77;;;21.70;99.90;;;;;;6250333;23;20370;-81
2023/10/13 10:05:34;;;;;;;1.20;1.20;;;21.80;99.90;;;;;;6250669;23;20387;-81
2023/10/13 10:08:02;;;;;;;1.33;1.33;;;21.80;99.90;;;;;;6251457;23;20411;-81
2023/10/13 10:10:46;;;;;;;1.17;1.17;;;21.80;99.90;;;;;;6259607;23;20398;-81
2023/10/13 10:13:30;;;;;;;1.30;1.30;;;21.90;99.90;;;;;;6254893;23;20392;-81
2023/10/13 10:16:00;;;;;;;1.63;1.53;;;22.10;99.90;;;;;;6250245;23;20420;-81
2023/10/13 10:18:27;;;;;;;3.40;3.10;;;22.00;99.90;;;;;;6250412;23;20353;-85
2023/10/13 10:21:09;;;;;;;3.00;2.80;;;22.00;99.90;;;;;;6223177;23;20401;-80
2023/10/13 10:23:39;;;;;;;0.90;0.90;;;22.00;99.90;;;;;;6253427;23;20421;-83
2023/10/13 10:26:20;;;;;;;1.00;1.00;;;21.90;99.90;;;;;;6224889;23;20433;-80
2023/10/13 10:28:47;;;;;;;1.07;1.07;;;22.10;99.90;;;;;;6251126;23;20384;-81
2023/10/13 10:31:17;;;;;;;2.10;2.00;;;22.10;99.90;;;;;;6250487;23;20435;-81
2023/10/13 10:33:46;;;;;;;1.50;1.40;;;21.90;99.90;;;;;;6225485;23;20726;-83
2023/10/13 10:36:16;;;;;;;1.90;1.80;;;21.90;99.90;;;;;;6253243;23;20637;-83
2023/10/13 10:39:00;;;;;;;1.70;1.60;;;21.90;99.90;;;;;;6227226;23;20408;-81
2023/10/13 10:41:45;;;;;;;1.20;1.20;;;21.80;99.90;;;;;;6253865;23;20392;-79
2023/10/13 10:44:16;;;;;;;5.13;4.63;;;21.80;99.90;;;;;;6257591;23;20365;-81
2023/10/13 10:46:57;;;;;;;1.00;1.00;;;21.80;99.90;;;;;;6259911;23;20385;-84
2023/10/13 10:49:28;;;;;;;1.73;1.63;;;21.70;99.90;;;;;;6254046;23;21033;-80
2023/10/13 10:52:03;;;;;;;1.40;1.30;;;21.70;99.90;;;;;;6250903;23;20376;-82
2023/10/13 10:54:33;;;;;;;1.27;1.27;;;21.80;99.90;;;;;;6251591;23;20393;-82
2023/10/13 10:57:18;;;;;;;2.07;1.97;;;21.80;99.90;;;;;;6250091;23;20440;-84
2023/10/13 10:59:46;;;;;;;3.40;3.10;;;21.60;99.90;;;;;;6250985;23;20394;-85
2023/10/13 11:02:18;;;;;;;3.60;1.10;;;21.80;99.90;;;;;;6225995;23;20371;-81
2023/10/13 11:04:51;;;;;;;2.13;2.03;;;21.80;99.90;;;;;;6251143;23;20436;-82
2023/10/13 11:07:26;;;;;;;1.00;1.00;;;21.80;99.90;;;;;;6250570;23;20379;-82
2023/10/13 11:10:06;;;;;;;1.80;1.70;;;21.70;99.90;;;;;;6225416;23;20420;-83
2023/10/13 11:12:34;;;;;;;1.73;1.63;;;21.70;99.90;;;;;;6253980;23;20449;-81
2023/10/13 11:15:02;;;;;;;1.40;1.30;;;21.70;99.90;;;;;;6224777;23;20393;-81
2023/10/13 11:17:42;;;;;;;1.10;1.10;;;21.90;99.90;;;;;;6250214;23;20475;-81
2023/10/13 11:20:17;;;;;;;1.10;1.10;;;22.00;99.90;;;;;;6251395;23;20508;-83
2023/10/13 11:22:49;;;;;;;2.13;2.03;;;21.90;99.90;;;;;;6252075;23;20423;-84
2023/10/13 11:25:35;;;;;;;1.33;1.30;;;22.20;99.90;;;;;;6253797;23;20393;-81
2023/10/13 11:28:28;;;;;;;1.10;1.10;;;22.30;99.90;;;;;;6253721;23;20388;-84
2023/10/13 11:30:58;;;;;;;1.10;1.10;;;22.30;99.90;;;;;;6227523;23;20377;-84
2023/10/13 11:33:28;;;;;;;1.40;1.40;;;22.30;99.90;;;;;;6252102;23;20790;-80
2023/10/13 11:35:57;;;;;;;1.37;1.37;;;22.30;99.90;;;;;;6251701;23;20491;-81
2023/10/13 11:41:19;;;;;;;8.93;3.00;;;22.30;99.90;;;;;;6251015;23;20384;-84
2023/10/13 11:44:13;;;;;;;1.63;1.53;;;22.30;99.90;;;;;;6249386;23;20412;-84
2023/10/13 11:49:17;;;;;;;1.50;1.43;;;22.20;99.90;;;;;;6254418;23;20370;-80
2023/10/13 11:51:52;;;;;;;1.17;1.17;;;22.20;99.90;;;;;;6223423;23;20392;-84
2023/10/13 11:58:08;;;;;;;0.90;0.90;;;22.40;99.90;;;;;;6147933;23;20428;-81
2023/10/13 12:00:50;;;;;;;1.20;1.20;;;22.40;99.90;;;;;;6131076;23;20401;-84
2023/10/13 12:06:19;;;;;;;0.80;0.80;;;22.70;99.90;;;;;;6108466;23;20882;-83
2023/10/13 12:08:49;;;;;;;1.07;1.07;;;22.50;99.90;;;;;;6129348;23;20415;-82
2023/10/13 12:11:31;;;;;;;2.00;1.90;;;22.40;99.90;;;;;;6119976;23;20377;-82
2023/10/13 12:14:11;;;;;;;0.80;0.80;;;22.30;99.90;;;;;;6129528;23;20381;-82
2023/10/13 12:16:38;;;;;;;1.60;1.50;;;22.20;99.90;;;;;;6128891;23;20436;-81
2023/10/13 12:19:10;;;;;;;1.70;1.60;;;22.10;99.90;;;;;;6129540;23;20400;-83
2023/10/13 12:21:38;;;;;;;1.10;1.10;;;22.00;99.90;;;;;;6129457;23;20420;-82
2023/10/13 12:27:00;;;;;;;1.73;1.63;;;21.90;99.90;;;;;;6108275;23;20641;-80
2023/10/13 12:29:30;;;;;;;1.73;1.63;;;21.90;99.90;;;;;;6128601;23;20432;-84
2023/10/13 12:32:14;;;;;;;0.93;0.93;;;21.80;99.90;;;;;;6128889;23;20429;-81
2023/10/13 12:35:16;;;;;;;1.00;1.00;;;21.80;99.90;;;;;;6138782;23;20399;-81
2023/10/13 12:49:04;;;;;;;6.43;3.33;;;21.50;99.90;;;;;;6250973;23;20386;-80
2023/10/13 12:54:13;;;;;;;3.40;1.87;;;21.50;99.90;;;;;;6250125;23;20428;-82
2023/10/13 12:56:42;;;;;;;1.00;1.00;;;21.40;99.90;;;;;;6250936;23;20447;-78
2023/10/13 12:59:13;;;;;;;2.00;1.90;;;21.30;99.90;;;;;;6248587;23;20451;-79
2023/10/13 13:01:44;;;;;;;1.00;1.00;;;21.20;99.90;;;;;;6249413;23;20404;-78
2023/10/13 13:04:19;;;;;;;0.90;0.90;;;21.20;99.90;;;;;;6250087;23;20380;-79
2023/10/13 13:06:53;;;;;;;2.53;1.80;;;21.30;99.90;;;;;;6251998;23;20359;-78
2023/10/13 13:09:26;;;;;;;1.30;1.30;;;21.30;99.90;;;;;;6249040;23;20399;-78
2023/10/13 13:11:59;;;;;;;2.60;2.13;;;21.20;99.90;;;;;;6249055;23;20492;-78
2023/10/13 13:14:29;;;;;;;1.77;1.67;;;21.20;99.90;;;;;;6248571;23;20837;-78
2023/10/13 13:17:14;;;;;;;1.40;1.33;;;21.20;99.90;;;;;;6249429;23;20399;-79
2023/10/13 13:19:42;;;;;;;1.40;1.30;;;21.00;99.90;;;;;;6248958;23;20385;-79
2023/10/13 13:22:11;;;;;;;2.63;2.43;;;20.90;99.90;;;;;;6250221;23;20393;-79
2023/10/13 13:24:43;;;;;;;0.80;0.80;;;20.70;99.90;;;;;;6249900;23;20371;-79
2023/10/13 13:27:13;;;;;;;2.10;2.00;;;20.60;99.90;;;;;;6249465;23;20477;-78
2023/10/13 13:29:44;;;;;;;2.93;2.30;;;20.60;99.90;;;;;;6248167;23;21028;-77
2023/10/13 13:32:24;;;;;;;1.13;1.13;;;20.80;99.90;;;;;;6248385;23;20388;-78
2023/10/13 13:35:03;;;;;;;2.93;2.73;;;20.70;99.90;;;;;;6249816;23;20378;-81
2023/10/13 13:37:31;;;;;;;1.20;1.20;;;20.90;99.90;;;;;;6249746;23;20965;-78
2023/10/13 13:40:14;;;;;;;1.20;1.20;;;21.10;99.90;;;;;;6223835;23;20717;-78
2023/10/13 13:42:43;;;;;;;2.57;2.37;;;21.00;99.90;;;;;;6249513;23;20413;-81
2023/10/13 13:45:21;;;;;;;1.57;1.47;;;20.90;99.90;;;;;;6249242;23;20570;-79
2023/10/13 13:47:53;;;;;;;2.27;1.93;;;20.90;99.90;;;;;;6249353;23;20380;-79
2023/10/13 13:50:24;;;;;;;1.10;1.10;;;20.90;99.90;;;;;;6224533;23;20389;-77
2023/10/13 13:52:56;;;;;;;1.77;1.67;;;21.00;99.90;;;;;;6249785;23;20413;-78
2023/10/13 13:55:31;;;;;;;2.07;1.97;;;21.00;99.90;;;;;;6249309;23;20471;-77
2023/10/13 13:57:58;;;;;;;3.60;3.40;;;21.10;99.90;;;;;;6254318;23;20466;-79
2023/10/13 14:00:42;;;;;;;2.80;2.07;;;21.10;99.90;;;;;;6225939;23;20364;-80
2023/10/13 14:03:30;;;;;;;1.53;1.40;;;21.20;99.90;;;;;;6249896;23;20950;-78
2023/10/13 14:05:59;;;;;;;1.87;1.77;;;21.30;99.90;;;;;;6224013;23;20355;-79
2023/10/13 14:08:28;;;;;;;0.70;0.70;;;21.20;99.90;;;;;;6223304;23;20397;-81
2023/10/13 14:11:13;;;;;;;1.10;1.10;;;21.10;99.90;;;;;;6223398;23;20615;-78
2023/10/13 14:13:51;;;;;;;1.17;1.17;;;21.00;99.90;;;;;;6249551;23;20492;-78
2023/10/13 14:16:20;;;;;;;0.80;0.80;;;21.00;99.90;;;;;;6249293;23;20429;-78
2023/10/13 14:18:49;;;;;;;2.00;1.90;;;21.10;99.90;;;;;;6248833;23;20472;-78
2023/10/13 14:21:17;;;;;;;1.03;1.03;;;20.90;99.90;;;;;;6248607;23;20378;-78
2023/10/13 14:23:49;;;;;;;1.87;1.77;;;20.90;99.90;;;;;;6249042;23;20448;-80
2023/10/13 14:26:20;;;;;;;1.80;1.70;;;20.80;99.90;;;;;;6249210;23;20408;-82
2023/10/13 14:29:01;;;;;;;0.70;0.70;;;20.70;99.90;;;;;;6223743;23;20363;-78
2023/10/13 14:31:29;;;;;;;1.80;1.30;;;20.60;99.90;;;;;;6248854;23;20668;-77
2023/10/13 14:33:57;;;;;;;1.67;1.57;;;20.60;99.90;;;;;;6248510;23;20466;-77
2023/10/13 14:36:28;;;;;;;0.63;0.63;;;20.60;99.90;;;;;;6222675;23;20448;-81
2023/10/13 14:38:56;;;;;;;1.00;0.90;;;20.50;99.90;;;;;;6249727;23;20360;-79
2023/10/13 14:41:24;;;;;;;1.43;1.33;;;20.50;99.90;;;;;;6249094;23;20608;-79
2023/10/13 14:43:51;;;;;;;1.43;1.33;;;20.40;99.90;;;;;;6248736;23;20356;-79
2023/10/13 14:46:22;;;;;;;0.80;0.80;;;20.30;99.90;;;;;;6248938;23;20379;-77
2023/10/13 14:48:53;;;;;;;1.33;1.27;;;20.20;99.90;;;;;;6223188;23;20415;-78
2023/10/13 14:51:20;;;;;;;1.10;1.10;;;20.20;99.90;;;;;;6249756;23;20371;-78
2023/10/13 14:53:48;;;;;;;0.80;0.80;;;20.30;99.90;;;;;;6251237;23;20401;-80
2023/10/13 14:56:19;;;;;;;0.70;0.70;;;20.30;99.90;;;;;;6248391;23;20438;-80
2023/10/13 14:58:47;;;;;;;1.10;1.10;;;20.30;99.90;;;;;;6250214;23;20400;-80
2023/10/13 15:01:15;;;;;;;0.80;0.80;;;20.30;99.90;;;;;;6250981;23;20371;-78
2023/10/13 15:03:43;;;;;;;1.10;1.10;;;20.20;99.90;;;;;;6224088;23;20393;-80
2023/10/13 15:06:20;;;;;;;1.43;1.33;;;20.20;99.90;;;;;;6250080;23;20368;-78
2023/10/13 15:08:48;;;;;;;1.87;1.77;;;20.20;99.90;;;;;;6248843;23;20387;-79
2023/10/13 15:11:18;;;;;;;0.77;0.77;;;20.20;99.90;;;;;;6223259;23;20407;-78
2023/10/13 15:13:45;;;;;;;1.23;1.17;;;20.10;99.90;;;;;;6249088;23;20396;-81
2023/10/13 15:16:16;;;;;;;1.37;1.37;;;20.10;99.90;;;;;;6249374;23;20378;-82
2023/10/13 15:18:51;;;;;;;0.70;0.70;;;20.00;99.90;;;;;;6250224;23;20376;-78
2023/10/13 15:21:23;;;;;;;0.90;0.90;;;20.00;99.90;;;;;;6250792;23;20352;-81
2023/10/13 15:23:51;;;;;;;1.80;1.70;;;20.00;99.90;;;;;;6251368;23;20355;-78
2023/10/13 15:26:21;;;;;;;2.70;2.07;;;19.90;99.90;;;;;;6251341;23;20450;-77
2023/10/13 15:28:55;;;;;;;1.83;1.73;;;19.90;99.90;;;;;;6259932;23;20408;-80
2023/10/13 15:31:26;;;;;;;1.60;1.50;;;19.90;99.90;;;;;;6267682;23;20376;-78
2023/10/13 15:33:55;;;;;;;0.70;0.70;;;19.80;99.90;;;;;;6241990;22;20373;-80
2023/10/13 15:36:24;;;;;;;1.63;1.53;;;19.80;99.90;;;;;;6265950;23;20387;-79
2023/10/13 15:38:56;;;;;;;1.13;1.13;;;19.70;99.90;;;;;;6229481;23;20418;-79
2023/10/13 15:41:25;;;;;;;0.70;0.70;;;19.70;99.90;;;;;;6226943;23;20534;-79
2023/10/13 15:43:55;;;;;;;2.77;2.57;;;19.80;99.90;;;;;;6253537;23;20340;-84
2023/10/13 15:46:22;;;;;;;0.70;0.70;;;19.70;99.90;;;;;;6253568;23;20437;-81
2023/10/13 15:49:12;;;;;;;4.10;2.73;;;19.70;99.90;;;;;;6251401;23;20694;-83
2023/10/13 15:51:41;;;;;;;0.97;0.97;;;19.60;99.90;;;;;;6252045;23;20402;-80
2023/10/13 15:54:14;;;;;;;1.63;1.53;;;19.60;99.90;;;;;;6252351;23;20427;-82
2023/10/13 15:56:48;;;;;;;2.70;2.50;;;19.60;99.90;;;;;;6228209;23;20395;-79
2023/10/13 15:59:15;;;;;;;1.00;1.00;;;19.60;99.90;;;;;;6229891;23;20382;-82
2023/10/13 16:01:46;;;;;;;0.80;0.80;;;19.60;99.90;;;;;;6229352;23;20415;-80
2023/10/13 16:04:14;;;;;;;1.40;1.40;;;19.60;99.90;;;;;;6227648;23;20598;-79
2023/10/13 16:06:46;;;;;;;1.47;1.37;;;19.50;99.90;;;;;;6251730;23;20389;-78
2023/10/13 16:09:14;;;;;;;1.83;1.73;;;19.40;99.90;;;;;;6250212;23;20467;-80
2023/10/13 16:11:48;;;;;;;1.47;1.47;;;19.30;99.90;;;;;;6225134;23;20414;-79
2023/10/13 16:14:18;;;;;;;0.73;0.73;;;19.30;99.90;;;;;;6250321;23;20548;-81
2023/10/13 16:16:48;;;;;;;1.33;1.23;;;19.20;99.90;;;;;;6248135;23;20422;-79
2023/10/13 16:19:23;;;;;;;1.23;1.23;;;19.10;99.90;;;;;;6249812;23;20379;-79
2023/10/13 16:21:52;;;;;;;1.70;1.60;;;19.10;99.90;;;;;;6250778;23;20357;-79
2023/10/13 16:24:21;;;;;;;0.80;0.80;;;19.00;99.90;;;;;;6224787;23;20371;-79
2023/10/13 16:26:52;;;;;;;1.43;1.33;;;19.00;99.90;;;;;;6250419;23;20391;-79
2023/10/13 16:29:20;;;;;;;0.70;0.70;;;19.00;99.90;;;;;;6251359;23;20381;-82
2023/10/13 16:31:48;;;;;;;1.73;1.63;;;18.90;99.90;;;;;;6223212;23;20713;-82
2023/10/13 16:34:16;;;;;;;2.20;1.50;;;18.80;99.90;;;;;;6249559;23;20428;-81
2023/10/13 16:36:45;;;;;;;0.83;0.83;;;18.60;99.90;;;;;;6250296;23;20408;-79